Time;durP1;ratioP1;P1;durP2;ratioP2;P2;SDS_P1;SDS_P2;PMS_P1;PMS_P2;Temp;Humidity;BMP_temperature;BMP_pressure;BME280_temperature;BME280_humidity;BME280_pressure;Samples;Min_cycle;Max_cycle;Signal;HPM_P1;HPM_P2
2022/10/30 00:00:03;;;;;;;21.00;6.70;;;;;;;15.22;100.00;101590.03;5040302;28;20033;-69
2022/10/30 00:02:38;;;;;;;15.63;7.13;;;;;;;15.23;100.00;101586.38;5066469;28;20121;-69
2022/10/30 00:05:03;;;;;;;18.52;7.57;;;;;;;15.08;100.00;101584.75;5053038;28;20051;-68
2022/10/30 00:07:29;;;;;;;17.88;7.88;;;;;;;15.11;100.00;101583.66;5052080;28;20201;-68
2022/10/30 00:09:54;;;;;;;20.23;8.13;;;;;;;15.13;100.00;101577.25;5051018;28;20040;-68
2022/10/30 00:12:20;;;;;;;18.60;7.47;;;;;;;15.11;100.00;101583.66;5058381;28;20036;-69
2022/10/30 00:14:45;;;;;;;23.92;8.32;;;;;;;15.07;100.00;101582.19;5057464;28;20056;-68
2022/10/30 00:17:10;;;;;;;18.63;7.45;;;;;;;15.15;100.00;101577.13;5053191;28;20041;-69
2022/10/30 00:19:36;;;;;;;16.75;7.03;;;;;;;15.20;100.00;101581.19;5057009;28;20037;-68
2022/10/30 00:22:01;;;;;;;23.98;8.48;;;;;;;15.13;100.00;101581.75;5060525;28;20408;-68
2022/10/30 00:24:28;;;;;;;27.02;7.60;;;;;;;15.05;100.00;101584.97;5060929;28;20640;-69
2022/10/30 00:26:53;;;;;;;18.90;7.75;;;;;;;14.97;100.00;101581.97;5060105;28;20066;-69
2022/10/30 00:29:19;;;;;;;21.38;8.52;;;;;;;14.96;100.00;101582.91;5058580;28;20960;-69
2022/10/30 00:31:45;;;;;;;24.25;6.78;;;;;;;14.82;100.00;101577.69;5051123;28;20048;-68
2022/10/30 00:34:10;;;;;;;16.35;7.60;;;;;;;14.82;100.00;101572.31;5052326;28;20166;-68
2022/10/30 00:36:36;;;;;;;21.80;7.32;;;;;;;14.69;100.00;101573.13;5039972;28;20090;-67
2022/10/30 00:39:02;;;;;;;22.77;9.38;;;;;;;14.68;100.00;101579.47;5059536;28;20043;-68
2022/10/30 00:41:28;;;;;;;20.13;7.97;;;;;;;14.70;100.00;101574.84;5058937;28;20607;-68
2022/10/30 00:43:54;;;;;;;19.98;7.38;;;;;;;14.69;100.00;101565.09;5055437;28;20078;-67
2022/10/30 00:46:25;;;;;;;23.60;8.27;;;;;;;14.61;100.00;101571.94;5053023;28;20049;-69
2022/10/30 00:49:08;;;;;;;23.60;8.30;;;;;;;14.54;100.00;101567.97;5059064;28;20033;-68
2022/10/30 00:51:36;;;;;;;15.02;7.40;;;;;;;14.60;100.00;101572.91;5046725;28;20037;-68
2022/10/30 00:54:03;;;;;;;23.80;9.00;;;;;;;14.63;100.00;101576.25;5050680;28;20055;-69
2022/10/30 00:56:30;;;;;;;26.00;8.15;;;;;;;14.66;100.00;101573.38;5057211;28;20040;-68
2022/10/30 00:59:03;;;;;;;17.17;8.20;;;;;;;14.64;100.00;101583.34;5060186;28;20077;-68
2022/10/30 01:01:35;;;;;;;20.70;8.40;;;;;;;14.54;100.00;101578.72;5056681;28;20044;-67
2022/10/30 01:04:04;;;;;;;23.30;8.83;;;;;;;14.57;100.00;101579.38;5051148;28;20132;-68
2022/10/30 01:06:32;;;;;;;27.27;10.15;;;;;;;14.55;100.00;101586.66;5049514;28;20471;-68
2022/10/30 01:08:58;;;;;;;21.48;8.30;;;;;;;14.55;100.00;101585.78;5049447;28;20119;-68
2022/10/30 01:11:24;;;;;;;22.55;9.02;;;;;;;14.56;100.00;101585.69;5052733;28;20939;-69
2022/10/30 01:13:53;;;;;;;20.05;7.25;;;;;;;14.56;100.00;101582.13;5049369;28;20575;-68
2022/10/30 01:16:34;;;;;;;21.35;8.32;;;;;;;14.53;100.00;101580.53;5065392;28;20479;-68
2022/10/30 01:19:12;;;;;;;22.02;8.00;;;;;;;14.37;100.00;101585.19;5059817;28;20028;-69
2022/10/30 01:21:46;;;;;;;20.48;7.40;;;;;;;14.40;100.00;101588.50;5059902;28;20063;-70
2022/10/30 01:24:38;;;;;;;22.45;8.35;;;;;;;14.32;100.00;101580.13;5059517;28;20063;-69
2022/10/30 01:27:34;;;;;;;27.13;8.63;;;;;;;14.30;100.00;101584.72;5059251;28;20032;-68
2022/10/30 01:30:32;;;;;;;24.98;9.57;;;;;;;14.31;100.00;101590.94;5036581;28;20075;-68
2022/10/30 01:33:27;;;;;;;24.98;8.75;;;;;;;14.28;100.00;101588.50;5072829;28;20037;-69
2022/10/30 01:36:04;;;;;;;29.08;8.25;;;;;;;14.26;100.00;101583.25;5075979;28;20686;-69
2022/10/30 01:39:02;;;;;;;25.33;8.85;;;;;;;14.20;100.00;101587.16;5071377;28;20048;-68
2022/10/30 01:41:28;;;;;;;18.90;8.40;;;;;;;14.14;100.00;101581.34;5064953;28;20106;-68
2022/10/30 01:43:59;;;;;;;21.85;9.13;;;;;;;14.10;100.00;101582.50;5058533;28;20040;-68
2022/10/30 01:46:58;;;;;;;17.73;8.30;;;;;;;14.05;100.00;101585.50;5074554;28;20035;-68
2022/10/30 01:49:36;;;;;;;22.10;8.07;;;;;;;14.05;100.00;101590.00;5073366;28;20049;-69
2022/10/30 01:52:13;;;;;;;28.60;8.98;;;;;;;13.93;100.00;101603.25;5060387;28;20066;-68
2022/10/30 01:55:02;;;;;;;16.20;8.93;;;;;;;13.89;100.00;101608.91;5076191;28;20584;-69
2022/10/30 01:57:37;;;;;;;21.05;9.18;;;;;;;13.84;100.00;101608.34;5051286;28;20038;-69
2022/10/30 02:00:07;;;;;;;17.10;8.52;;;;;;;13.88;100.00;101600.03;5055564;28;20108;-68
2022/10/30 02:02:39;;;;;;;21.70;8.13;;;;;;;13.92;100.00;101600.69;5054800;28;20564;-68
2022/10/30 02:05:07;;;;;;;23.58;8.65;;;;;;;13.90;100.00;101602.59;5056396;28;20089;-69
2022/10/30 02:07:34;;;;;;;19.50;8.07;;;;;;;13.82;100.00;101599.56;5056800;28;20045;-68
2022/10/30 02:10:00;;;;;;;18.63;8.07;;;;;;;13.78;100.00;101598.03;5056372;28;20056;-69
2022/10/30 02:12:27;;;;;;;19.17;8.40;;;;;;;13.70;100.00;101601.19;5081591;28;20136;-68
2022/10/30 02:14:59;;;;;;;19.05;8.38;;;;;;;13.61;100.00;101601.81;5074039;28;20139;-68
2022/10/30 02:17:25;;;;;;;20.23;8.65;;;;;;;13.54;100.00;101609.38;5055762;28;20048;-69
2022/10/30 02:19:51;;;;;;;25.20;9.48;;;;;;;13.48;100.00;101602.56;5050394;28;20036;-69
2022/10/30 02:22:16;;;;;;;25.25;9.18;;;;;;;13.50;100.00;101604.28;5056664;28;20040;-68
2022/10/30 02:24:43;;;;;;;21.25;9.57;;;;;;;13.42;100.00;101586.03;5062370;28;20064;-68
2022/10/30 02:27:09;;;;;;;31.63;8.85;;;;;;;13.40;100.00;101590.63;5051623;28;20122;-69
2022/10/30 02:29:34;;;;;;;20.40;8.98;;;;;;;13.30;100.00;101601.03;5040319;28;20543;-69
2022/10/30 02:32:00;;;;;;;28.48;9.93;;;;;;;13.17;100.00;101605.44;5074570;28;20068;-69
2022/10/30 02:34:26;;;;;;;15.75;8.45;;;;;;;13.14;100.00;101600.25;5051666;28;20044;-69
2022/10/30 02:36:51;;;;;;;23.30;9.35;;;;;;;13.07;100.00;101609.63;5059808;28;20052;-68
2022/10/30 02:39:21;;;;;;;24.05;9.52;;;;;;;13.11;100.00;101609.34;5050295;28;20056;-68
2022/10/30 02:41:47;;;;;;;16.65;8.30;;;;;;;13.05;100.00;101612.41;5056995;28;20032;-68
2022/10/30 02:44:12;;;;;;;20.80;8.85;;;;;;;12.98;100.00;101612.88;5049810;28;20086;-69
2022/10/30 02:46:38;;;;;;;18.15;8.27;;;;;;;12.76;100.00;101614.19;5076107;28;20547;-68
2022/10/30 02:49:04;;;;;;;17.60;8.73;;;;;;;12.74;100.00;101617.88;5052727;28;20047;-69
2022/10/30 02:51:31;;;;;;;20.35;8.98;;;;;;;12.68;100.00;101614.63;5052751;28;20033;-69
2022/10/30 02:53:58;;;;;;;20.17;8.65;;;;;;;12.77;100.00;101612.38;5058342;28;20512;-67
2022/10/30 02:56:23;;;;;;;18.38;8.90;;;;;;;12.78;100.00;101608.72;5069501;28;20044;-69
2022/10/30 02:58:49;;;;;;;25.83;9.68;;;;;;;12.79;100.00;101605.94;5054282;28;20603;-69
2022/10/30 03:01:16;;;;;;;28.27;9.93;;;;;;;12.77;100.00;101601.66;5055962;28;20032;-69
2022/10/30 03:03:45;;;;;;;22.95;9.60;;;;;;;12.83;100.00;101604.81;5052093;28;20032;-68
2022/10/30 03:06:14;;;;;;;21.85;9.20;;;;;;;12.83;100.00;101612.84;5056907;28;20500;-69
2022/10/30 03:08:40;;;;;;;32.95;10.05;;;;;;;12.76;100.00;101611.50;5059763;28;20060;-69
2022/10/30 03:11:11;;;;;;;18.02;9.77;;;;;;;12.74;100.00;101612.53;5048805;28;20039;-69
2022/10/30 03:13:39;;;;;;;22.55;9.27;;;;;;;12.54;100.00;101611.91;5056765;28;20051;-67
2022/10/30 03:16:11;;;;;;;24.05;9.85;;;;;;;12.54;100.00;101613.72;5053460;28;20060;-68
2022/10/30 03:18:37;;;;;;;22.45;9.63;;;;;;;12.66;100.00;101618.38;5050520;28;20040;-68
2022/10/30 03:21:10;;;;;;;22.13;9.40;;;;;;;12.60;100.00;101618.69;5055953;28;20051;-69
2022/10/30 03:23:36;;;;;;;22.05;10.95;;;;;;;12.63;100.00;101613.19;5053955;28;20608;-69
2022/10/30 03:26:02;;;;;;;18.70;10.68;;;;;;;12.64;100.00;101618.44;5051975;28;20032;-69
2022/10/30 03:28:31;;;;;;;22.40;9.50;;;;;;;12.71;100.00;101616.28;5046798;28;20045;-68
2022/10/30 03:31:01;;;;;;;31.42;11.82;;;;;;;12.69;100.00;101620.84;5078484;28;20031;-69
2022/10/30 03:33:27;;;;;;;22.20;11.00;;;;;;;12.65;100.00;101628.22;5048910;28;20047;-69
2022/10/30 03:35:53;;;;;;;30.65;9.98;;;;;;;12.58;100.00;101625.97;5057957;28;20072;-68
2022/10/30 03:38:19;;;;;;;20.92;9.25;;;;;;;12.55;100.00;101626.13;5057653;28;20039;-68
2022/10/30 03:40:44;;;;;;;20.73;8.85;;;;;;;12.55;100.00;101628.81;5043176;28;20409;-69
2022/10/30 03:43:10;;;;;;;23.58;9.70;;;;;;;12.47;100.00;101626.59;5054108;28;20032;-69
2022/10/30 03:45:35;;;;;;;24.60;9.00;;;;;;;12.36;100.00;101626.38;5057900;28;20400;-68
2022/10/30 03:48:05;;;;;;;18.08;9.48;;;;;;;12.33;100.00;101621.19;5059849;28;20028;-69
2022/10/30 03:50:31;;;;;;;27.58;10.25;;;;;;;12.26;100.00;101622.53;5059429;28;20025;-68
2022/10/30 03:52:57;;;;;;;23.75;9.90;;;;;;;12.27;100.00;101629.59;5062144;28;20110;-69
2022/10/30 03:55:23;;;;;;;24.60;10.52;;;;;;;12.27;100.00;101622.41;5052074;28;20041;-68
2022/10/30 03:57:50;;;;;;;31.83;10.38;;;;;;;12.26;100.00;101618.03;5086538;28;20128;-68
2022/10/30 04:00:17;;;;;;;26.42;10.75;;;;;;;12.19;100.00;101627.34;5061712;28;20043;-68
2022/10/30 04:02:55;;;;;;;15.18;8.48;;;;;;;12.21;100.00;101632.63;5061557;28;20044;-71
2022/10/30 04:05:26;;;;;;;24.38;9.75;;;;;;;12.20;100.00;101623.75;5061230;28;20078;-68
2022/10/30 04:07:58;;;;;;;26.88;10.80;;;;;;;12.28;100.00;101615.25;5078803;28;20137;-69
2022/10/30 04:10:24;;;;;;;29.35;10.63;;;;;;;12.29;100.00;101619.66;5043511;28;20040;-69
2022/10/30 04:12:53;;;;;;;29.33;9.95;;;;;;;12.13;100.00;101617.00;5059255;28;20025;-68
2022/10/30 04:15:19;;;;;;;29.45;9.02;;;;;;;12.14;100.00;101616.03;5054565;28;20075;-70
2022/10/30 04:17:49;;;;;;;30.38;10.75;;;;;;;12.16;100.00;101611.50;5055559;28;20033;-69
2022/10/30 04:20:15;;;;;;;21.80;9.13;;;;;;;12.10;100.00;101617.19;5061014;28;20039;-70
2022/10/30 04:22:42;;;;;;;18.35;8.82;;;;;;;11.97;100.00;101624.19;5060598;28;20713;-69
2022/10/30 04:25:08;;;;;;;17.00;8.68;;;;;;;11.83;100.00;101628.47;5051846;28;20040;-67
2022/10/30 04:27:43;;;;;;;28.17;8.80;;;;;;;11.77;100.00;101630.59;5064571;28;20051;-69
2022/10/30 04:30:11;;;;;;;21.75;9.63;;;;;;;11.71;100.00;101637.16;5078815;28;20044;-69
2022/10/30 04:32:47;;;;;;;24.48;9.85;;;;;;;11.78;100.00;101635.00;5063787;28;20025;-69
2022/10/30 04:35:13;;;;;;;25.67;9.30;;;;;;;11.87;100.00;101632.72;5056539;28;20102;-69
2022/10/30 04:37:39;;;;;;;20.20;10.65;;;;;;;11.85;100.00;101637.28;5056062;28;20040;-68
2022/10/30 04:40:06;;;;;;;24.40;10.55;;;;;;;11.92;100.00;101632.47;5050896;28;20029;-68
2022/10/30 04:42:39;;;;;;;22.15;9.85;;;;;;;11.91;100.00;101644.09;5052089;28;20643;-68
2022/10/30 04:45:05;;;;;;;20.13;9.35;;;;;;;11.83;100.00;101635.63;5061846;28;20040;-68
2022/10/30 04:47:30;;;;;;;24.73;10.70;;;;;;;11.77;100.00;101642.16;5055790;28;20035;-68
2022/10/30 04:49:56;;;;;;;28.13;9.52;;;;;;;11.78;100.00;101641.22;5057125;28;20033;-68
2022/10/30 04:52:21;;;;;;;24.10;10.85;;;;;;;11.76;100.00;101643.13;5059713;28;20060;-68
2022/10/30 04:54:49;;;;;;;17.35;8.73;;;;;;;11.57;100.00;101637.06;5037002;28;20850;-69
2022/10/30 04:57:14;;;;;;;26.25;10.23;;;;;;;11.63;100.00;101634.91;5060019;28;20036;-67
2022/10/30 04:59:41;;;;;;;23.05;10.88;;;;;;;11.60;100.00;101636.91;5056270;28;20025;-68
2022/10/30 05:02:07;;;;;;;16.60;9.82;;;;;;;11.62;100.00;101633.19;5060931;28;20048;-70
2022/10/30 05:04:32;;;;;;;25.08;10.00;;;;;;;11.64;100.00;101636.63;5060431;28;20037;-69
2022/10/30 05:06:58;;;;;;;18.33;9.35;;;;;;;11.61;100.00;101633.28;5061026;28;20045;-68
2022/10/30 05:09:23;;;;;;;24.42;11.05;;;;;;;11.54;100.00;101623.84;5058309;28;20063;-68
2022/10/30 05:11:50;;;;;;;18.77;11.07;;;;;;;11.69;100.00;101620.34;5062290;28;20160;-68
2022/10/30 05:14:16;;;;;;;27.00;12.55;;;;;;;11.74;100.00;101628.09;5030203;28;20037;-68
2022/10/30 05:16:42;;;;;;;30.65;11.77;;;;;;;11.73;100.00;101608.53;5058167;28;20041;-68
2022/10/30 05:19:08;;;;;;;27.42;11.35;;;;;;;11.76;100.00;101613.72;5061914;28;20083;-68
2022/10/30 05:21:33;;;;;;;23.20;10.05;;;;;;;11.65;100.00;101613.47;5062102;28;20035;-71
2022/10/30 05:23:59;;;;;;;25.27;10.00;;;;;;;11.38;100.00;101624.69;5060420;28;20118;-69
2022/10/30 05:26:26;;;;;;;20.58;8.48;;;;;;;11.13;100.00;101621.63;5057406;28;20049;-69
2022/10/30 05:28:52;;;;;;;23.45;8.27;;;;;;;11.18;100.00;101619.56;5074921;28;20032;-68
2022/10/30 05:31:18;;;;;;;20.90;9.60;;;;;;;11.25;100.00;101623.66;5052362;28;20473;-68
2022/10/30 05:34:03;;;;;;;20.48;9.02;;;;;;;11.06;100.00;101618.41;5037437;28;20642;-68
2022/10/30 05:36:29;;;;;;;20.00;9.18;;;;;;;11.14;100.00;101621.56;5061812;28;20040;-69
2022/10/30 05:38:54;;;;;;;24.88;9.32;;;;;;;11.08;100.00;101615.66;5060181;28;20068;-69
2022/10/30 05:41:29;;;;;;;24.63;11.23;;;;;;;10.95;100.00;101604.78;5058960;28;20110;-68
2022/10/30 05:43:55;;;;;;;28.75;10.90;;;;;;;10.97;100.00;101607.38;5062664;28;20150;-68
2022/10/30 05:46:20;;;;;;;26.05;10.63;;;;;;;11.00;100.00;101602.75;5064533;28;20519;-69
2022/10/30 05:48:46;;;;;;;23.52;11.52;;;;;;;11.02;100.00;101597.31;5046512;28;20035;-70
2022/10/30 05:51:11;;;;;;;32.70;11.15;;;;;;;10.98;100.00;101601.94;5057025;28;20037;-68
2022/10/30 05:53:41;;;;;;;23.83;9.45;;;;;;;10.96;100.00;101605.66;5072265;28;20036;-69
2022/10/30 05:56:07;;;;;;;24.85;10.23;;;;;;;10.63;100.00;101609.97;5052461;28;20062;-68
2022/10/30 05:58:34;;;;;;;20.73;9.80;;;;;;;10.56;100.00;101613.03;5078104;28;20060;-69
2022/10/30 06:01:06;;;;;;;19.15;9.18;;;;;;;10.62;100.00;101612.72;5076142;28;20032;-69
2022/10/30 06:03:53;;;;;;;18.48;9.93;;;;;;;10.63;100.00;101617.97;5053231;28;20067;-68
2022/10/30 06:06:19;;;;;;;17.15;9.13;;;;;;;10.69;100.00;101624.78;5052970;28;20053;-68
2022/10/30 06:08:44;;;;;;;22.38;10.35;;;;;;;10.58;100.00;101625.34;5072194;28;20086;-69
2022/10/30 06:11:30;;;;;;;23.75;10.10;;;;;;;10.65;100.00;101623.25;5059303;28;20706;-69
2022/10/30 06:13:57;;;;;;;20.90;9.88;;;;;;;10.73;100.00;101615.69;5057338;28;20036;-67
2022/10/30 06:16:35;;;;;;;24.35;10.82;;;;;;;10.83;100.00;101618.75;5041896;28;20045;-69
2022/10/30 06:19:27;;;;;;;24.10;11.10;;;;;;;10.92;100.00;101614.75;5036912;28;20070;-68
2022/10/30 06:21:59;;;;;;;25.65;11.38;;;;;;;10.86;100.00;101619.47;5057990;28;20379;-69
2022/10/30 06:24:40;;;;;;;15.82;9.48;;;;;;;10.55;100.00;101628.19;5057019;28;20516;-68
2022/10/30 06:27:27;;;;;;;18.02;8.80;;;;;;;10.68;100.00;101630.22;5058546;28;20047;-68
2022/10/30 06:29:53;;;;;;;30.08;10.35;;;;;;;10.67;100.00;101637.34;5060322;28;20040;-68
2022/10/30 06:32:20;;;;;;;21.13;10.05;;;;;;;10.69;100.00;101645.28;5054648;28;20040;-69
2022/10/30 06:34:45;;;;;;;17.17;9.40;;;;;;;10.48;100.00;101644.56;5058763;28;20029;-70
2022/10/30 06:37:12;;;;;;;28.75;11.73;;;;;;;10.82;100.00;101644.56;5059207;28;20059;-68
2022/10/30 06:39:38;;;;;;;27.23;12.38;;;;;;;11.05;100.00;101645.19;5066190;28;20106;-68
2022/10/30 06:42:22;;;;;;;27.50;12.05;;;;;;;11.14;100.00;101650.03;5056250;28;20074;-69
2022/10/30 06:45:08;;;;;;;24.48;11.48;;;;;;;11.20;100.00;101652.41;5056795;28;20052;-69
2022/10/30 06:47:35;;;;;;;24.75;12.23;;;;;;;11.29;100.00;101651.03;5056407;28;20854;-69
2022/10/30 06:50:01;;;;;;;23.70;11.93;;;;;;;11.20;100.00;101652.41;5068559;28;20036;-70
2022/10/30 06:52:27;;;;;;;33.10;11.60;;;;;;;11.08;100.00;101653.88;5043691;28;20451;-68
2022/10/30 06:54:54;;;;;;;23.05;10.35;;;;;;;10.93;100.00;101646.69;5055544;28;20135;-69
2022/10/30 06:57:39;;;;;;;27.08;12.68;;;;;;;11.00;100.00;101641.91;5042286;28;20493;-69
2022/10/30 07:00:23;;;;;;;19.23;10.75;;;;;;;11.05;100.00;101650.53;5059238;28;20408;-68
2022/10/30 07:03:09;;;;;;;19.10;10.10;;;;;;;10.82;100.00;101639.22;5027161;28;20044;-68
2022/10/30 07:05:35;;;;;;;23.20;10.27;;;;;;;11.03;100.00;101639.91;5057704;28;20081;-68
2022/10/30 07:08:02;;;;;;;19.10;9.70;;;;;;;11.16;100.00;101640.16;5057073;28;20044;-68
2022/10/30 07:10:27;;;;;;;26.00;13.13;;;;;;;11.34;100.00;101636.47;5053700;28;20040;-67
2022/10/30 07:13:08;;;;;;;27.90;13.18;;;;;;;11.40;100.00;101632.66;5055915;28;20044;-68
2022/10/30 07:15:51;;;;;;;26.42;12.45;;;;;;;11.50;100.00;101628.53;5057685;28;20059;-68
2022/10/30 07:18:22;;;;;;;26.90;12.88;;;;;;;11.58;100.00;101628.09;5054015;28;20122;-68
2022/10/30 07:20:57;;;;;;;21.90;10.07;;;;;;;11.57;100.00;101627.22;5057465;28;20440;-69
2022/10/30 07:23:23;;;;;;;22.50;9.98;;;;;;;11.70;100.00;101623.88;5053412;28;20032;-68
2022/10/30 07:25:50;;;;;;;20.83;9.55;;;;;;;11.72;100.00;101630.00;5058478;28;20032;-69
2022/10/30 07:28:30;;;;;;;22.98;10.77;;;;;;;11.75;100.00;101628.03;5052013;28;20040;-68
2022/10/30 07:31:16;;;;;;;33.67;12.90;;;;;;;11.80;100.00;101625.09;5045080;28;20048;-69
2022/10/30 07:33:50;;;;;;;23.42;8.98;;;;;;;11.71;100.00;101628.28;5051374;28;20033;-69
2022/10/30 07:36:39;;;;;;;28.20;10.45;;;;;;;11.89;100.00;101627.28;5067293;28;20056;-68
2022/10/30 07:39:26;;;;;;;23.95;10.93;;;;;;;11.97;100.00;101625.03;5059865;28;20036;-68
2022/10/30 07:42:03;;;;;;;25.63;12.48;;;;;;;12.19;100.00;101622.84;5059027;28;20047;-69
2022/10/30 07:45:00;;;;;;;31.13;12.77;;;;;;;12.40;100.00;101622.59;5072861;28;20338;-69
2022/10/30 07:47:42;;;;;;;33.47;12.90;;;;;;;12.47;100.00;101618.59;5056124;28;20836;-69
2022/10/30 07:50:18;;;;;;;32.38;13.52;;;;;;;12.61;100.00;101615.97;5057016;28;20032;-69
2022/10/30 07:52:43;;;;;;;29.50;13.93;;;;;;;12.70;100.00;101612.75;5074897;28;20039;-69
2022/10/30 07:55:09;;;;;;;31.58;13.55;;;;;;;12.84;100.00;101603.84;5057062;28;20051;-69
2022/10/30 07:57:48;;;;;;;33.33;13.18;;;;;;;13.01;100.00;101608.19;5071471;28;20107;-69
2022/10/30 08:00:26;;;;;;;32.90;14.00;;;;;;;13.08;100.00;101603.31;5076462;28;20117;-68
2022/10/30 08:03:12;;;;;;;27.48;12.73;;;;;;;13.11;100.00;101606.69;5069440;28;20748;-68
2022/10/30 08:05:48;;;;;;;23.58;13.75;;;;;;;13.25;100.00;101597.78;5058380;28;20106;-68
2022/10/30 08:08:20;;;;;;;32.60;14.63;;;;;;;13.28;100.00;101602.13;5064511;28;20048;-68
2022/10/30 08:10:51;;;;;;;33.15;14.63;;;;;;;13.30;100.00;101606.41;5057552;28;20032;-69
2022/10/30 08:13:17;;;;;;;28.48;14.65;;;;;;;13.42;100.00;101608.34;5050488;28;20430;-68
2022/10/30 08:15:43;;;;;;;34.22;13.35;;;;;;;13.63;100.00;101611.47;5069443;28;20474;-68
2022/10/30 08:18:08;;;;;;;30.27;13.50;;;;;;;13.75;100.00;101615.16;5055269;28;20067;-69
2022/10/30 08:20:36;;;;;;;25.38;12.65;;;;;;;13.82;100.00;101618.34;5051653;28;20036;-68
2022/10/30 08:23:02;;;;;;;29.25;13.93;;;;;;;13.87;100.00;101610.84;5053698;28;20037;-69
2022/10/30 08:25:29;;;;;;;33.45;13.77;;;;;;;13.97;100.00;101610.16;5054732;28;20044;-70
2022/10/30 08:28:00;;;;;;;33.63;14.57;;;;;;;13.99;100.00;101610.03;5068914;28;20286;-69
2022/10/30 08:30:33;;;;;;;26.00;15.48;;;;;;;14.07;100.00;101606.88;5062621;28;20071;-69
2022/10/30 08:33:01;;;;;;;37.50;17.30;;;;;;;14.18;100.00;101604.34;5050585;28;20151;-68
2022/10/30 08:36:00;;;;;;;36.35;14.50;;;;;;;14.34;100.00;101602.34;5055941;28;20080;-69
2022/10/30 08:38:26;;;;;;;28.08;13.10;;;;;;;14.45;100.00;101599.78;5057328;28;20059;-70
2022/10/30 08:41:08;;;;;;;25.35;14.05;;;;;;;14.54;100.00;101597.50;5056006;28;20075;-67
2022/10/30 08:43:40;;;;;;;32.47;14.63;;;;;;;14.62;100.00;101614.81;5070532;28;20029;-69
2022/10/30 08:46:06;;;;;;;25.50;14.68;;;;;;;14.74;100.00;101608.59;5040191;28;20071;-67
2022/10/30 08:48:31;;;;;;;33.75;14.00;;;;;;;14.84;100.00;101616.88;5053880;28;20048;-68
2022/10/30 08:51:00;;;;;;;35.45;15.13;;;;;;;14.94;100.00;101611.72;5050262;28;20036;-68
2022/10/30 08:53:30;;;;;;;28.13;13.05;;;;;;;15.08;100.00;101611.63;5041346;28;20056;-68
2022/10/30 08:55:56;;;;;;;27.17;13.45;;;;;;;14.98;100.00;101600.66;5046916;28;20041;-68
2022/10/30 08:58:27;;;;;;;29.43;14.20;;;;;;;14.97;100.00;101595.41;5053682;28;20044;-68
2022/10/30 09:00:53;;;;;;;19.63;12.02;;;;;;;14.95;100.00;101598.19;5047940;28;20098;-68
2022/10/30 09:03:37;;;;;;;29.80;14.48;;;;;;;15.00;100.00;101590.66;5057049;28;20148;-67
2022/10/30 09:06:35;;;;;;;30.58;14.02;;;;;;;15.12;100.00;101585.41;5059487;28;20056;-68
2022/10/30 09:09:19;;;;;;;37.72;13.93;;;;;;;15.10;100.00;101581.97;5055019;28;20530;-69
2022/10/30 09:11:48;;;;;;;37.10;15.23;;;;;;;15.11;100.00;101581.88;5059694;28;20075;-68
2022/10/30 09:14:14;;;;;;;33.33;15.15;;;;;;;15.16;100.00;101579.72;5058912;28;20501;-69
2022/10/30 09:16:39;;;;;;;34.85;15.65;;;;;;;15.25;100.00;101575.50;5057930;28;20572;-68
2022/10/30 09:19:08;;;;;;;37.20;17.08;;;;;;;15.32;100.00;101587.53;5052368;28;20029;-69
2022/10/30 09:21:34;;;;;;;31.05;16.55;;;;;;;15.48;100.00;101590.84;5041442;28;20474;-67
2022/10/30 09:23:59;;;;;;;31.33;15.95;;;;;;;15.61;100.00;101598.00;5054073;28;20028;-69
2022/10/30 09:26:51;;;;;;;39.03;16.08;;;;;;;15.89;100.00;101591.53;5058335;28;20052;-69
2022/10/30 09:29:22;;;;;;;28.85;16.42;;;;;;;15.80;100.00;101588.53;5058599;28;20060;-68
2022/10/30 09:32:09;;;;;;;29.63;14.35;;;;;;;15.77;100.00;101583.38;5056548;28;20056;-69
2022/10/30 09:34:46;;;;;;;29.90;16.60;;;;;;;15.78;100.00;101578.88;5068219;28;20051;-69
2022/10/30 09:37:19;;;;;;;32.15;14.02;;;;;;;16.05;100.00;101582.19;5042568;28;20095;-69
2022/10/30 09:39:49;;;;;;;26.95;14.00;;;;;;;16.18;100.00;101589.34;5055545;28;20811;-67
2022/10/30 09:42:36;;;;;;;34.30;14.85;;;;;;;16.27;100.00;101597.59;5053890;28;20527;-68
2022/10/30 09:45:24;;;;;;;25.25;13.20;;;;;;;16.16;100.00;101608.28;5040638;28;20049;-68
2022/10/30 09:48:29;;;;;;;32.33;14.50;;;;;;;16.47;100.00;101606.88;5049505;28;20051;-69
2022/10/30 09:51:41;;;;;;;35.75;14.88;;;;;;;16.71;100.00;101608.63;5052435;28;20036;-68
2022/10/30 09:54:10;;;;;;;28.52;14.55;;;;;;;16.75;100.00;101602.94;5054310;28;20792;-68
2022/10/30 09:56:51;;;;;;;28.13;13.45;;;;;;;16.85;100.00;101600.38;5057934;28;20047;-69
2022/10/30 09:59:35;;;;;;;26.70;12.82;;;;;;;16.71;100.00;101601.44;5050619;28;20037;-68
2022/10/30 10:02:39;;;;;;;24.92;12.40;;;;;;;16.93;100.00;101603.34;5059831;28;20029;-68
2022/10/30 10:05:16;;;;;;;27.70;12.93;;;;;;;16.82;100.00;101603.34;5048853;28;20578;-68
2022/10/30 10:08:07;;;;;;;31.42;12.63;;;;;;;16.83;100.00;101599.66;5051078;28;20586;-68
2022/10/30 10:11:09;;;;;;;;;;;;;;;16.92;100.00;101589.97;5056631;28;20667;-69
2022/10/30 10:13:46;;;;;;;29.40;11.60;;;;;;;16.99;100.00;101592.09;5057879;28;19924;-68
2022/10/30 10:16:21;;;;;;;21.77;11.07;;;;;;;16.99;100.00;101583.16;5056067;28;20044;-70
2022/10/30 10:18:57;;;;;;;22.73;13.07;;;;;;;17.01;100.00;101589.25;5050547;28;20041;-67
2022/10/30 10:21:23;;;;;;;22.45;11.25;;;;;;;17.12;100.00;101593.81;5058772;28;20036;-68
2022/10/30 10:23:52;;;;;;;30.35;12.80;;;;;;;17.54;100.00;101592.22;5054160;28;20059;-68
2022/10/30 10:26:43;;;;;;;21.15;10.65;;;;;;;17.77;98.42;101601.16;5050744;28;20041;-68
2022/10/30 10:29:23;;;;;;;23.10;11.15;;;;;;;17.88;96.82;101601.16;5055848;28;20036;-67
2022/10/30 10:32:09;;;;;;;19.88;10.40;;;;;;;17.97;95.68;101605.81;5049141;28;20055;-68
2022/10/30 10:34:49;;;;;;;29.45;10.30;;;;;;;18.10;94.51;101613.75;5057626;28;20043;-68
2022/10/30 10:37:52;;;;;;;21.13;11.50;;;;;;;18.21;95.10;101619.09;5055909;28;20576;-68
2022/10/30 10:40:25;;;;;;;24.55;11.90;;;;;;;18.00;95.53;101620.88;5052864;28;20059;-68
2022/10/30 10:43:17;;;;;;;25.27;11.38;;;;;;;18.36;93.45;101612.41;5059103;28;20044;-67
2022/10/30 10:46:05;;;;;;;27.98;11.43;;;;;;;18.10;94.11;101619.13;5054238;28;20044;-68
2022/10/30 10:48:52;;;;;;;24.50;10.75;;;;;;;18.16;93.75;101613.22;5054734;28;20033;-69
2022/10/30 10:51:42;;;;;;;29.95;11.27;;;;;;;18.05;93.38;101606.03;5055215;28;20428;-67
2022/10/30 10:54:26;;;;;;;28.08;11.00;;;;;;;17.96;95.96;101608.63;5059527;28;20120;-69
2022/10/30 10:56:54;;;;;;;29.83;12.40;;;;;;;18.03;95.59;101605.31;5069490;28;20077;-68
2022/10/30 10:59:25;;;;;;;22.95;11.38;;;;;;;17.89;97.25;101602.88;5056655;28;20044;-68
2022/10/30 11:01:57;;;;;;;18.77;10.83;;;;;;;18.12;94.93;101603.66;5053108;28;20048;-68
2022/10/30 11:04:30;;;;;;;26.98;11.90;;;;;;;18.18;93.61;101600.47;5054125;28;20047;-68
2022/10/30 11:06:58;;;;;;;21.40;10.98;;;;;;;18.72;91.63;101598.66;5054423;28;20067;-67
2022/10/30 11:09:27;;;;;;;24.20;11.05;;;;;;;18.58;92.69;101591.72;5055611;28;20040;-68
2022/10/30 11:11:54;;;;;;;25.30;12.52;;;;;;;18.68;92.28;101603.47;5054684;28;20048;-68
2022/10/30 11:14:23;;;;;;;27.15;11.18;;;;;;;18.88;91.72;101596.38;5056503;28;20559;-68
2022/10/30 11:17:01;;;;;;;27.83;10.75;;;;;;;18.85;90.31;101592.06;5057836;28;20052;-68
2022/10/30 11:19:29;;;;;;;25.23;10.50;;;;;;;18.73;90.69;101595.00;5069495;28;20046;-68
2022/10/30 11:21:56;;;;;;;21.00;11.88;;;;;;;18.46;95.11;101580.09;5057860;28;20048;-67
2022/10/30 11:24:28;;;;;;;25.73;11.93;;;;;;;18.63;91.74;101576.81;5060220;28;20024;-69
2022/10/30 11:27:16;;;;;;;22.10;11.20;;;;;;;18.68;92.93;101571.06;5060349;28;20060;-69
2022/10/30 11:30:04;;;;;;;34.75;11.25;;;;;;;18.77;90.90;101569.38;5071165;28;20037;-68